createdAt,value
2019-03-19T00:00:49.973Z,72.5
2019-03-19T00:01:48.807Z,72.7
2019-03-19T00:02:48.135Z,72.7
2019-03-19T00:03:47.008Z,72.6
2019-03-19T00:04:45.837Z,72.5
2019-03-19T00:05:45.066Z,72.5
2019-03-19T00:06:43.931Z,72.1
2019-03-19T00:07:14.446Z,72.1
2019-03-19T00:07:45.095Z,72.1
2019-03-19T00:08:15.730Z,72.1
2019-03-19T00:08:46.000Z,72
2019-03-19T00:09:16.135Z,72
2019-03-19T00:09:46.769Z,71.8
2019-03-19T00:10:40.068Z,72.1
2019-03-19T00:11:39.302Z,72
2019-03-19T00:12:38.226Z,72.1
2019-03-19T00:13:36.960Z,72.3
2019-03-19T00:14:36.094Z,72.4
2019-03-19T00:15:35.426Z,72.4
2019-03-19T00:16:34.261Z,72.4
2019-03-19T00:17:04.899Z,72.4
2019-03-19T00:17:35.537Z,72.3
2019-03-19T00:18:05.989Z,72.3
2019-03-19T00:18:36.530Z,72.4
2019-03-19T00:19:07.070Z,72.4
2019-03-19T00:20:30.662Z,72.6
2019-03-19T00:21:29.596Z,72.9
2019-03-19T00:22:28.322Z,72.8
2019-03-19T00:23:27.290Z,73.2
2019-03-19T00:24:26.715Z,73
2019-03-19T00:25:30.728Z,73
2019-03-19T00:26:24.364Z,73.1
2019-03-19T00:26:54.737Z,73.1
2019-03-19T00:27:25.377Z,73.4
2019-03-19T00:27:55.939Z,73.4
2019-03-19T00:28:26.498Z,73.5
2019-03-19T00:28:56.738Z,73.5
2019-03-19T00:30:20.642Z,73.5
2019-03-19T00:31:19.964Z,73.5
2019-03-19T00:32:18.798Z,73.6
2019-03-19T00:33:18.030Z,74
2019-03-19T00:34:16.677Z,74
2019-03-19T00:35:16.018Z,74
2019-03-19T00:35:46.564Z,74
2019-03-19T00:36:17.851Z,74.1
2019-03-19T00:36:47.319Z,74.1
2019-03-19T00:37:17.469Z,74.4
2019-03-19T00:37:48.008Z,74.4
2019-03-19T00:38:18.262Z,74.3
2019-03-19T00:38:48.811Z,74.3
2019-03-19T00:39:19.357Z,74.1
2019-03-19T00:39:49.619Z,74.1
2019-03-19T00:41:10.095Z,74.5
2019-03-19T00:42:08.919Z,74.7
2019-03-19T00:43:08.295Z,74.9
2019-03-19T00:44:07.260Z,74.9
2019-03-19T00:45:06.192Z,75.1
2019-03-19T00:45:36.432Z,75.1
2019-03-19T00:46:07.078Z,75.3
2019-03-19T00:46:37.619Z,75.3
2019-03-19T00:47:08.129Z,75.2
2019-03-19T00:47:38.788Z,75.2
2019-03-19T00:48:08.889Z,75.1
2019-03-19T00:48:39.637Z,75.1
2019-03-19T00:49:10.190Z,75.4
2019-03-19T00:49:40.431Z,75.4
2019-03-19T00:50:11.082Z,75.3
2019-03-19T00:50:41.556Z,75.3
2019-03-19T00:51:59.320Z,75.4
2019-03-19T00:52:58.150Z,75.4
2019-03-19T00:53:57.484Z,75.4
2019-03-19T00:54:56.358Z,75.5
2019-03-19T00:55:55.585Z,75.3
2019-03-19T00:56:26.242Z,75.3
2019-03-19T00:56:56.493Z,75.4
2019-03-19T00:57:27.177Z,75.4
2019-03-19T00:58:52.678Z,75.6
2019-03-19T00:59:22.907Z,75.6
2019-03-19T00:59:53.546Z,75.6
2019-03-19T01:00:23.995Z,75.6
2019-03-19T01:02:48.396Z,75.8
2019-03-19T01:03:47.833Z,75.9
2019-03-19T01:04:46.554Z,76.1
2019-03-19T01:05:45.876Z,76.2
2019-03-19T01:06:44.796Z,76
2019-03-19T01:07:15.042Z,76
2019-03-19T01:07:45.190Z,76.1
2019-03-19T01:08:15.834Z,76.1
2019-03-19T01:08:45.975Z,76.1
2019-03-19T01:09:16.717Z,76.1
2019-03-19T01:09:47.291Z,76.2
2019-03-19T01:10:18.036Z,76.2
2019-03-19T01:11:39.933Z,76.2
2019-03-19T01:12:38.771Z,76.3
2019-03-19T01:13:37.918Z,76.1
2019-03-19T01:14:36.744Z,76.2
2019-03-19T01:15:35.983Z,76.1
2019-03-19T01:16:34.905Z,76.3
2019-03-19T01:17:05.552Z,76.3
2019-03-19T01:17:35.897Z,76.4
2019-03-19T01:18:06.538Z,76.4
2019-03-19T01:18:37.308Z,76.6
2019-03-19T01:19:07.799Z,76.6
2019-03-19T01:19:38.435Z,76.6
2019-03-19T01:20:08.974Z,76.6
2019-03-19T01:21:29.943Z,76.8
2019-03-19T01:22:28.863Z,76.6
2019-03-19T01:23:28.184Z,76.9
2019-03-19T01:24:27.009Z,76.7
2019-03-19T01:26:25.310Z,76.7
2019-03-19T01:27:24.133Z,77
2019-03-19T01:27:54.593Z,77
2019-03-19T01:28:25.246Z,76.9
2019-03-19T01:28:55.501Z,76.9
2019-03-19T01:29:26.055Z,76.9
2019-03-19T01:29:56.701Z,76.9
2019-03-19T01:31:20.492Z,77.2
2019-03-19T01:32:19.414Z,77.3
2019-03-19T01:33:18.335Z,77.4
2019-03-19T01:34:17.064Z,77.4
2019-03-19T01:35:16.495Z,77.5
2019-03-19T01:36:15.332Z,77.6
2019-03-19T01:37:14.258Z,77.8
2019-03-19T01:38:13.183Z,77.9
2019-03-19T01:38:43.845Z,77.9
2019-03-19T01:39:14.348Z,77.7
2019-03-19T01:39:44.884Z,77.7
2019-03-19T01:40:15.529Z,77.9
2019-03-19T01:41:10.331Z,77.9
2019-03-19T01:42:09.651Z,78.3
2019-03-19T01:43:08.594Z,78.1
2019-03-19T01:44:07.315Z,78.1
2019-03-19T01:45:06.657Z,78.2
2019-03-19T01:46:05.480Z,78.2
2019-03-19T01:47:04.308Z,78.3
2019-03-19T01:48:03.534Z,78.5
2019-03-19T01:48:34.142Z,78.5
2019-03-19T01:50:01.763Z,78.6
2019-03-19T01:51:59.500Z,78.9
2019-03-19T01:52:58.423Z,79
2019-03-19T01:53:57.756Z,79
2019-03-19T01:54:56.579Z,79.2
2019-03-19T01:56:05.700Z,79.4
2019-03-19T01:56:54.869Z,79.4
2019-03-19T01:57:53.688Z,79.4
2019-03-19T01:59:51.853Z,79.3
2019-03-19T02:00:50.632Z,79.3
2019-03-19T02:01:49.962Z,79.5
2019-03-19T02:02:49.003Z,79.7
2019-03-19T02:03:47.938Z,79.9
2019-03-19T02:04:18.593Z,79.9
2019-03-19T02:04:49.228Z,79.8
2019-03-19T02:05:45.942Z,80
2019-03-19T02:06:44.763Z,80.4
2019-03-19T02:07:43.727Z,80
2019-03-19T02:08:42.992Z,80.1
2019-03-19T02:09:41.803Z,80
2019-03-19T02:10:41.029Z,79.9
2019-03-19T02:11:39.749Z,80
2019-03-19T02:12:39.107Z,80
2019-03-19T02:13:37.929Z,80
2019-03-19T02:14:08.573Z,80
2019-03-19T02:15:36.076Z,79.8
2019-03-19T02:16:35.020Z,79.9
2019-03-19T02:17:33.834Z,80
2019-03-19T02:18:32.913Z,80.1
2019-03-19T02:19:31.825Z,80.1
2019-03-19T02:20:31.177Z,80
2019-03-19T02:21:29.908Z,80
2019-03-19T02:22:29.234Z,80.3
2019-03-19T02:23:28.077Z,80.4
2019-03-19T02:23:58.715Z,80.4
2019-03-19T02:24:29.346Z,80.4
2019-03-19T02:24:59.595Z,80.4
2019-03-19T02:26:24.979Z,80.4
2019-03-19T02:27:23.792Z,80.5
2019-03-19T02:28:23.018Z,80.5
2019-03-19T02:29:21.834Z,80.5
2019-03-19T02:30:21.181Z,80.5
2019-03-19T02:31:19.950Z,80.1
2019-03-19T02:32:18.947Z,80.1
2019-03-19T02:33:17.835Z,80
2019-03-19T02:33:48.619Z,80
2019-03-19T02:34:18.865Z,80
2019-03-19T02:34:49.523Z,80
2019-03-19T02:35:19.789Z,80
2019-03-19T02:35:50.082Z,80
2019-03-19T02:37:14.105Z,80.1
2019-03-19T02:38:13.059Z,80
2019-03-19T02:39:12.077Z,80.1
2019-03-19T02:40:11.215Z,80.1
2019-03-19T02:41:10.140Z,79.8
2019-03-19T02:42:08.977Z,80
2019-03-19T02:43:08.422Z,80
2019-03-19T02:43:39.061Z,80
2019-03-19T02:44:09.422Z,80.1
2019-03-19T02:44:40.077Z,80.1
2019-03-19T02:45:10.758Z,80
2019-03-19T02:45:41.059Z,80
2019-03-19T02:46:11.703Z,79.7
2019-03-19T02:46:41.944Z,79.7
2019-03-19T02:48:03.075Z,79.9
2019-03-19T02:49:02.264Z,79.6
2019-03-19T02:50:01.115Z,79.7
2019-03-19T02:51:00.062Z,79.7
2019-03-19T02:51:59.410Z,79.9
2019-03-19T02:52:58.347Z,79.9
2019-03-19T02:53:30.036Z,79.9
2019-03-19T02:53:59.271Z,79.8
2019-03-19T02:54:29.924Z,79.8
2019-03-19T02:55:00.687Z,79.9
2019-03-19T02:55:30.938Z,79.9
2019-03-19T02:56:01.173Z,80
2019-03-19T02:56:33.764Z,80
2019-03-19T02:57:53.203Z,80.3
2019-03-19T02:58:52.029Z,80.2
2019-03-19T02:59:51.473Z,80.3
2019-03-19T03:00:50.324Z,80.4
2019-03-19T03:01:49.330Z,80.3
2019-03-19T03:02:48.273Z,80.3
2019-03-19T03:03:18.550Z,80.3
2019-03-19T03:03:48.827Z,80.3
2019-03-19T03:04:19.085Z,80.3
2019-03-19T03:04:49.354Z,80.5
2019-03-19T03:05:19.603Z,80.5
2019-03-19T03:05:49.880Z,80.6
2019-03-19T03:06:20.060Z,80.6
2019-03-19T03:06:50.743Z,80.7
2019-03-19T03:07:21.012Z,80.7
2019-03-19T03:08:42.093Z,81.1
2019-03-19T03:09:41.153Z,80.9
2019-03-19T03:10:40.381Z,80.9
2019-03-19T03:11:39.241Z,81.1
2019-03-19T03:12:38.010Z,81.1
2019-03-19T03:13:08.686Z,81.1
2019-03-19T03:13:39.396Z,81
2019-03-19T03:14:09.648Z,81
2019-03-19T03:14:39.807Z,81.3
2019-03-19T03:15:10.574Z,81.3
2019-03-19T03:15:41.231Z,81.2
2019-03-19T03:16:11.412Z,81.2
2019-03-19T03:16:41.988Z,81.2
2019-03-19T03:17:12.543Z,81.2
2019-03-19T03:18:32.522Z,81.4
2019-03-19T03:19:31.473Z,81.3
2019-03-19T03:20:30.206Z,81.3
2019-03-19T03:21:29.131Z,81.4
2019-03-19T03:22:28.279Z,81.4
2019-03-19T03:23:27.166Z,81.5
2019-03-19T03:23:57.438Z,81.5
2019-03-19T03:24:28.121Z,81.8
2019-03-19T03:24:58.690Z,81.8
2019-03-19T03:25:29.339Z,81.5
2019-03-19T03:26:00.007Z,81.5
2019-03-19T03:26:30.325Z,81.5
2019-03-19T03:27:02.813Z,81.5
2019-03-19T03:28:22.571Z,81.7
2019-03-19T03:29:21.582Z,81.5
2019-03-19T03:30:20.462Z,81.6
2019-03-19T03:31:19.540Z,81.8
2019-03-19T03:32:18.508Z,81.9
2019-03-19T03:33:17.512Z,81.8
2019-03-19T03:33:48.055Z,81.8
2019-03-19T03:34:18.434Z,81.8
2019-03-19T03:34:48.733Z,81.8
2019-03-19T03:35:19.077Z,81.9
2019-03-19T03:35:49.521Z,81.9
2019-03-19T03:36:20.089Z,81.9
2019-03-19T03:36:50.643Z,81.9
2019-03-19T03:38:12.243Z,82.1
2019-03-19T03:39:11.314Z,82.1
2019-03-19T03:40:10.160Z,82.1
2019-03-19T03:41:09.500Z,82
2019-03-19T03:42:08.386Z,82
2019-03-19T03:43:07.361Z,82.2
2019-03-19T03:44:06.198Z,82.2
2019-03-19T03:44:36.658Z,82.2
2019-03-19T03:45:06.919Z,82.3
2019-03-19T03:45:37.500Z,82.3
2019-03-19T03:46:08.203Z,82.2
2019-03-19T03:46:38.475Z,82.2
2019-03-19T03:48:02.133Z,82.5
2019-03-19T03:49:01.579Z,82.4
2019-03-19T03:50:00.793Z,82.5
2019-03-19T03:50:59.564Z,82.5
2019-03-19T03:51:58.545Z,82.6
2019-03-19T03:52:57.424Z,82.7
2019-03-19T03:53:56.365Z,82.8
2019-03-19T03:54:55.215Z,82.7
2019-03-19T03:55:25.779Z,82.7
2019-03-19T03:55:56.401Z,82.8
2019-03-19T03:56:26.630Z,82.8
2019-03-19T03:57:03.080Z,82.9
2019-03-19T03:57:27.900Z,82.9
2019-03-19T03:57:58.000Z,83
2019-03-19T03:59:01.492Z,82.9
2019-03-19T03:59:50.359Z,82.7
2019-03-19T04:00:49.275Z,82.7
2019-03-19T04:01:48.232Z,82.8
2019-03-19T04:03:46.567Z,82.9
2019-03-19T04:04:45.547Z,82.9
2019-03-19T04:05:15.882Z,82.9
2019-03-19T04:05:46.075Z,82.9
2019-03-19T04:06:16.659Z,82.9
2019-03-19T04:06:47.225Z,83
2019-03-19T04:07:42.144Z,83
2019-03-19T04:08:41.113Z,83.2
2019-03-19T04:09:40.079Z,83
2019-03-19T04:10:39.332Z,83.1
2019-03-19T04:11:38.177Z,83.2
2019-03-19T04:12:37.155Z,82.9
2019-03-19T04:13:36.520Z,82.9
2019-03-19T04:14:35.354Z,82.8
2019-03-19T04:15:34.312Z,82.8
2019-03-19T04:16:04.574Z,82.8
2019-03-19T04:16:35.245Z,82.7
2019-03-19T04:17:32.042Z,82.8
2019-03-19T04:18:31.388Z,82.9
2019-03-19T04:19:30.299Z,82.7
2019-03-19T04:20:29.236Z,82.8
2019-03-19T04:20:59.476Z,82.8
2019-03-19T04:21:29.761Z,82.6
2019-03-19T04:22:27.199Z,82.7
2019-03-19T04:23:26.128Z,82.9
2019-03-19T04:24:25.282Z,82.7
2019-03-19T04:25:24.146Z,82.6
2019-03-19T04:26:23.013Z,82.5
2019-03-19T04:27:22.376Z,82.5
2019-03-19T04:28:21.223Z,82.3
2019-03-19T04:29:20.178Z,82.3
2019-03-19T04:30:19.201Z,82.4
2019-03-19T04:30:49.370Z,82.4
2019-03-19T04:32:17.312Z,82.2
2019-03-19T04:33:16.258Z,82.3
2019-03-19T04:34:15.106Z,82.4
2019-03-19T04:35:14.253Z,82.3
2019-03-19T04:36:13.107Z,82.4
2019-03-19T04:37:12.041Z,82.4
2019-03-19T04:38:10.997Z,82.5
2019-03-19T04:39:10.240Z,82.3
2019-03-19T04:40:08.991Z,82.3
2019-03-19T04:40:39.262Z,82.3
2019-03-19T04:41:09.434Z,82.5
2019-03-19T04:41:40.233Z,82.5
2019-03-19T04:43:06.168Z,82.3
2019-03-19T04:44:05.030Z,82.5
2019-03-19T04:45:04.373Z,82.5
2019-03-19T04:46:03.214Z,82.6
2019-03-19T04:47:02.141Z,82.6
2019-03-19T04:48:03.340Z,82.5
2019-03-19T04:49:00.329Z,82.6
2019-03-19T04:49:59.179Z,82.4
2019-03-19T04:50:29.836Z,82.4
2019-03-19T04:51:00.393Z,82.3
2019-03-19T04:51:30.952Z,82.3
2019-03-19T04:52:01.606Z,82.4
2019-03-19T04:52:32.248Z,82.4
2019-03-19T04:53:55.230Z,82.4
2019-03-19T04:54:54.175Z,82.5
2019-03-19T04:55:53.408Z,82.3
2019-03-19T04:56:52.165Z,82.6
2019-03-19T04:57:51.319Z,82.4
2019-03-19T04:58:50.048Z,82.3
2019-03-19T04:59:49.391Z,82.4
2019-03-19T05:00:19.635Z,82.4
2019-03-19T05:00:50.201Z,82.5
2019-03-19T05:01:20.837Z,82.5
2019-03-19T05:01:51.482Z,82.4
2019-03-19T05:02:21.782Z,82.4
2019-03-19T05:02:52.434Z,82.4
2019-03-19T05:03:23.068Z,82.4
2019-03-19T05:04:43.947Z,82.5
2019-03-19T05:05:43.041Z,82.5
2019-03-19T05:06:42.177Z,82.8
2019-03-19T05:07:41.294Z,82.4
2019-03-19T05:08:40.141Z,82.3
2019-03-19T05:09:38.968Z,82.4
2019-03-19T05:10:09.417Z,82.4
2019-03-19T05:10:40.075Z,82.8
2019-03-19T05:11:10.721Z,82.8
2019-03-19T05:11:40.969Z,83.1
2019-03-19T05:12:11.137Z,83.1
2019-03-19T05:12:41.698Z,83.7
2019-03-19T05:13:11.970Z,83.7
2019-03-19T05:14:34.257Z,83.6
2019-03-19T05:15:33.097Z,83.4
2019-03-19T05:16:31.945Z,83.4
2019-03-19T05:17:31.277Z,83.7
2019-03-19T05:18:31.717Z,83.3
2019-03-19T05:19:28.945Z,83.4
2019-03-19T05:19:59.586Z,83.4
2019-03-19T05:20:30.194Z,83.9
2019-03-19T05:21:00.841Z,83.9
2019-03-19T05:21:31.041Z,83.9
2019-03-19T05:22:01.683Z,83.9
2019-03-19T05:22:32.323Z,83.8
2019-03-19T05:23:02.880Z,83.8
2019-03-19T05:23:33.428Z,83.8
2019-03-19T05:24:03.979Z,83.8
2019-03-19T05:25:23.240Z,83.7
2019-03-19T05:26:22.064Z,83.7
2019-03-19T05:27:20.879Z,83.9
2019-03-19T05:28:20.217Z,83.6
2019-03-19T05:29:19.143Z,83.8
2019-03-19T05:29:49.397Z,83.8
2019-03-19T05:30:20.048Z,83.7
2019-03-19T05:30:50.399Z,83.7
2019-03-19T05:31:21.035Z,83.7
2019-03-19T05:31:51.677Z,83.7
2019-03-19T05:32:22.322Z,83.9
2019-03-19T05:32:52.839Z,83.9
2019-03-19T05:33:23.414Z,83.8
2019-03-19T05:33:54.097Z,83.8
2019-03-19T05:35:12.981Z,83.8
2019-03-19T05:36:11.875Z,83.9
2019-03-19T05:37:11.310Z,84.2
2019-03-19T05:38:10.247Z,84.1
2019-03-19T05:39:09.127Z,84
2019-03-19T05:40:07.955Z,84.1
2019-03-19T05:40:38.694Z,84.1
2019-03-19T05:41:08.931Z,84.4
2019-03-19T05:41:39.188Z,84.4
2019-03-19T05:42:09.649Z,84.1
2019-03-19T05:42:40.327Z,84.1
2019-03-19T05:43:10.648Z,84.1
2019-03-19T05:43:40.880Z,84.1
2019-03-19T05:45:02.863Z,84.1
2019-03-19T05:46:02.204Z,84
2019-03-19T05:47:01.050Z,83.8
2019-03-19T05:48:00.288Z,83.9
2019-03-19T05:48:59.225Z,83.9
2019-03-19T05:49:58.046Z,84.2
2019-03-19T05:50:28.589Z,84.2
2019-03-19T05:50:58.840Z,84
2019-03-19T05:51:29.386Z,84
2019-03-19T05:52:54.832Z,83.4
2019-03-19T05:53:25.390Z,83.4
2019-03-19T05:53:56.040Z,83.6
2019-03-19T05:54:52.972Z,83.7
2019-03-19T05:55:51.793Z,83.8
2019-03-19T05:56:51.083Z,83.9
2019-03-19T05:57:50.906Z,83.8
2019-03-19T05:58:48.824Z,83.8
2019-03-19T05:59:48.056Z,84
2019-03-19T06:00:47.297Z,84
2019-03-19T06:01:17.768Z,84
2019-03-19T06:01:47.922Z,84.2
2019-03-19T06:02:18.661Z,84.2
2019-03-19T06:02:48.973Z,84.3
2019-03-19T06:03:19.138Z,84.3
2019-03-19T06:04:43.245Z,84.5
2019-03-19T06:05:41.984Z,84.9
2019-03-19T06:06:41.064Z,84.9
2019-03-19T06:07:40.100Z,84.9
2019-03-19T06:08:39.034Z,84.8
2019-03-19T06:09:38.303Z,84.8
2019-03-19T06:10:37.129Z,84.9
2019-03-19T06:11:35.955Z,84.7
2019-03-19T06:12:06.605Z,84.7
2019-03-19T06:12:36.890Z,84.8
2019-03-19T06:13:07.175Z,84.8
2019-03-19T06:13:37.816Z,84.6
2019-03-19T06:14:08.370Z,84.6
2019-03-19T06:14:38.909Z,84.5
2019-03-19T06:15:32.294Z,84.6
2019-03-19T06:16:31.115Z,84.7
2019-03-19T06:17:29.758Z,84.5
2019-03-19T06:18:35.703Z,84.3
2019-03-19T06:19:28.140Z,84.2
2019-03-19T06:20:26.874Z,84.1
2019-03-19T06:21:26.207Z,84.2
2019-03-19T06:22:25.131Z,84.4
2019-03-19T06:22:55.842Z,84.4
2019-03-19T06:23:25.995Z,84.1
2019-03-19T06:24:22.925Z,83.6
2019-03-19T06:25:22.307Z,83.6
2019-03-19T06:26:21.301Z,84
2019-03-19T06:27:19.841Z,83.6
2019-03-19T06:28:19.181Z,83.6
2019-03-19T06:29:18.115Z,83.6
2019-03-19T06:30:17.353Z,83.6
2019-03-19T06:31:16.189Z,83.4
2019-03-19T06:32:15.015Z,83.6
2019-03-19T06:32:45.300Z,83.6
2019-03-19T06:33:15.538Z,83.2
2019-03-19T06:34:12.859Z,83.4
2019-03-19T06:35:12.182Z,83.1
2019-03-19T06:36:11.015Z,83.2
2019-03-19T06:37:10.353Z,83.3
2019-03-19T06:37:40.589Z,83.3
2019-03-19T06:38:10.948Z,82.5
2019-03-19T06:39:07.952Z,82.6
2019-03-19T06:40:07.303Z,82.7
2019-03-19T06:41:06.036Z,82.7
2019-03-19T06:42:05.371Z,82.6
2019-03-19T06:43:04.219Z,82.7
2019-03-19T06:44:02.960Z,82.7
2019-03-19T06:45:02.386Z,82.3
2019-03-19T06:46:01.211Z,82.3
2019-03-19T06:47:00.051Z,82.5
2019-03-19T06:47:30.730Z,82.5
2019-03-19T06:48:58.156Z,82.1
2019-03-19T06:49:57.279Z,82.2
2019-03-19T06:50:56.007Z,82.3
2019-03-19T06:52:54.128Z,82.8
2019-03-19T06:53:53.470Z,82.5
2019-03-19T06:54:52.214Z,82.6
2019-03-19T06:55:51.052Z,82.9
2019-03-19T06:56:50.375Z,82.9
2019-03-19T06:57:20.925Z,82.9
2019-03-19T06:57:51.073Z,83.6
2019-03-19T06:58:21.726Z,83.6
2019-03-19T06:59:47.138Z,83
2019-03-19T07:00:46.381Z,83.1
2019-03-19T07:01:45.108Z,83.4
2019-03-19T07:02:44.246Z,83.1
2019-03-19T07:03:43.583Z,83
2019-03-19T07:04:42.404Z,83
2019-03-19T07:05:41.136Z,83.3
2019-03-19T07:06:40.376Z,83
2019-03-19T07:07:10.623Z,83
2019-03-19T07:07:41.283Z,83.1
2019-03-19T07:08:11.921Z,83.1
2019-03-19T07:08:42.158Z,83.2
2019-03-19T07:09:12.805Z,83.2
2019-03-19T07:10:36.292Z,82.6
2019-03-19T07:11:35.428Z,82.9
2019-03-19T07:12:34.565Z,82.7
2019-03-19T07:13:33.489Z,82.7
2019-03-19T07:14:32.417Z,83
2019-03-19T07:15:31.344Z,82.6
2019-03-19T07:16:30.672Z,82.4
2019-03-19T07:17:01.222Z,82.4
2019-03-19T07:17:31.908Z,82.2
2019-03-19T07:18:02.655Z,82.2
2019-03-19T07:18:34.254Z,82
2019-03-19T07:19:03.831Z,82
2019-03-19T07:19:33.984Z,82
2019-03-19T07:20:04.634Z,82
2019-03-19T07:21:25.618Z,82.1
2019-03-19T07:22:24.453Z,81.9
2019-03-19T07:23:23.693Z,81.9
2019-03-19T07:24:22.516Z,81.8
2019-03-19T07:25:21.438Z,81.8
2019-03-19T07:26:20.768Z,81.5
2019-03-19T07:26:51.431Z,81.5
2019-03-19T07:27:21.688Z,81.5
2019-03-19T07:27:52.239Z,81.5
2019-03-19T07:28:22.926Z,81.9
2019-03-19T07:28:53.378Z,81.9
2019-03-19T07:29:23.826Z,81.4
2019-03-19T07:29:54.467Z,81.4
2019-03-19T07:31:15.534Z,81.4
2019-03-19T07:32:14.968Z,80.7
2019-03-19T07:33:13.899Z,80.9
2019-03-19T07:34:12.825Z,80.5
2019-03-19T07:35:11.699Z,80.8
2019-03-19T07:36:11.047Z,80.4
2019-03-19T07:36:41.697Z,80.4
2019-03-19T07:37:11.981Z,80.3
2019-03-19T07:37:42.447Z,80.3
2019-03-19T07:38:13.195Z,80.2
2019-03-19T07:38:43.846Z,80.2
2019-03-19T07:39:14.492Z,80
2019-03-19T07:39:44.940Z,80
2019-03-19T07:40:15.179Z,80.3
2019-03-19T07:40:45.424Z,80.3
2019-03-19T07:42:04.696Z,80.3
2019-03-19T07:43:03.941Z,80.5
2019-03-19T07:44:02.668Z,80.3
2019-03-19T07:45:02.123Z,79.6
2019-03-19T07:46:01.280Z,79.6
2019-03-19T07:46:31.534Z,79.6
2019-03-19T07:47:02.178Z,79.5
2019-03-19T07:47:32.837Z,79.5
2019-03-19T07:48:03.483Z,79.7
2019-03-19T07:48:33.739Z,79.7
2019-03-19T07:49:04.388Z,78.6
2019-03-19T07:49:34.973Z,78.6
2019-03-19T07:50:05.625Z,78.9
2019-03-19T07:50:35.824Z,78.9
2019-03-19T07:51:54.998Z,77.8
2019-03-19T07:52:54.387Z,78
2019-03-19T07:53:53.125Z,78.1
2019-03-19T07:54:52.453Z,77.7
2019-03-19T07:55:53.751Z,77.1
2019-03-19T07:56:50.068Z,76.9
2019-03-19T07:57:20.803Z,76.9
2019-03-19T07:57:51.105Z,77.1
2019-03-19T07:58:44.672Z,77.1
2019-03-19T07:58:52.255Z,77.4
2019-03-19T07:59:22.493Z,77.4
2019-03-19T07:59:52.746Z,77.1
2019-03-19T08:00:23.259Z,77.1
2019-03-19T08:01:45.185Z,77.1
2019-03-19T08:02:44.533Z,77.2
2019-03-19T08:03:43.391Z,77.1
2019-03-19T08:04:42.710Z,76.9
2019-03-19T08:05:41.544Z,76.9
2019-03-19T08:06:40.785Z,76.7
2019-03-19T08:07:39.524Z,76.8
2019-03-19T08:08:09.978Z,76.8
2019-03-19T08:08:40.213Z,76.6
2019-03-19T08:09:10.360Z,76.6
2019-03-19T08:09:41.335Z,76.8
2019-03-19T08:10:11.273Z,76.8
2019-03-19T08:11:35.869Z,76.6
2019-03-19T08:12:34.704Z,76.1
2019-03-19T08:13:33.841Z,76
2019-03-19T08:14:32.676Z,75.5
2019-03-19T08:15:31.901Z,75.6
2019-03-19T08:16:30.718Z,75.2
2019-03-19T08:17:30.053Z,74.4
2019-03-19T08:18:00.311Z,74.4
2019-03-19T08:18:30.962Z,74.5
2019-03-19T08:19:01.209Z,74.5
2019-03-19T08:19:31.822Z,74.9
2019-03-19T08:20:02.473Z,74.9
2019-03-19T08:21:25.875Z,75.4
2019-03-19T08:22:24.704Z,75.2
2019-03-19T08:23:24.056Z,75.3
2019-03-19T08:24:22.884Z,74.7
2019-03-19T08:25:22.328Z,74.8
2019-03-19T08:26:21.258Z,74.5
2019-03-19T08:27:19.993Z,74.6
2019-03-19T08:28:19.324Z,74.4
2019-03-19T08:28:55.867Z,74.4
2019-03-19T08:29:20.473Z,73.5
2019-03-19T08:29:51.120Z,73.5
2019-03-19T08:31:16.548Z,72.8
2019-03-19T08:32:15.440Z,72.6
2019-03-19T08:33:14.288Z,73.1
2019-03-19T08:34:13.626Z,73.3
2019-03-19T08:35:12.264Z,73.2
2019-03-19T08:36:11.616Z,73
2019-03-19T08:37:10.444Z,72.7
2019-03-19T08:38:09.679Z,72.7
2019-03-19T08:39:08.720Z,73
2019-03-19T08:39:39.272Z,73
2019-03-19T08:40:09.435Z,73.1
2019-03-19T08:40:40.100Z,73.1
2019-03-19T08:41:10.550Z,72.7
2019-03-19T08:42:05.664Z,73
2019-03-19T08:43:04.594Z,73
2019-03-19T08:44:03.843Z,73.1
2019-03-19T08:45:02.788Z,72.7
2019-03-19T08:46:02.140Z,71.6
2019-03-19T08:47:01.067Z,72
2019-03-19T08:47:59.997Z,71.6
2019-03-19T08:48:59.140Z,71.6
2019-03-19T08:49:58.064Z,71.8
2019-03-19T08:50:57.200Z,71.9
2019-03-19T08:51:56.059Z,71.6
2019-03-19T08:52:55.985Z,71.1
2019-03-19T08:53:54.221Z,70.9
2019-03-19T08:54:53.401Z,71
2019-03-19T08:55:23.948Z,71
2019-03-19T08:55:54.516Z,71.4
2019-03-19T08:56:51.428Z,71.6
2019-03-19T08:57:50.365Z,71.2
2019-03-19T08:58:49.593Z,71.4
2019-03-19T08:59:48.318Z,71
2019-03-19T09:00:47.737Z,71
2019-03-19T09:01:47.709Z,71.9
2019-03-19T09:02:45.528Z,72.6
2019-03-19T09:03:44.864Z,72.7
2019-03-19T09:04:43.693Z,72.9
2019-03-19T09:05:13.927Z,72.9
2019-03-19T09:05:44.564Z,71.7
2019-03-19T09:06:14.806Z,71.7
2019-03-19T09:06:45.263Z,72.2
2019-03-19T09:07:40.973Z,72.1
2019-03-19T09:08:39.757Z,72.3
2019-03-19T09:09:39.188Z,71.9
2019-03-19T09:10:38.031Z,71.8
2019-03-19T09:11:37.296Z,71.7
2019-03-19T09:12:36.244Z,71.9
2019-03-19T09:13:35.466Z,72.3
2019-03-19T09:14:34.314Z,72.9
2019-03-19T09:15:04.856Z,72.9
2019-03-19T09:15:35.424Z,73.2
2019-03-19T09:16:06.009Z,73.2
2019-03-19T09:17:31.610Z,73.9
2019-03-19T09:18:30.367Z,75.2
2019-03-19T09:19:29.697Z,76.7
2019-03-19T09:20:28.516Z,79.8
2019-03-19T09:21:27.655Z,82.7
2019-03-19T09:22:30.198Z,84.1
2019-03-19T09:23:25.822Z,85.7
2019-03-19T09:24:24.563Z,87
2019-03-19T09:24:55.206Z,87
2019-03-19T09:25:25.952Z,87.9
2019-03-19T09:25:56.804Z,87.9
2019-03-19T09:26:26.455Z,88.4
2019-03-19T09:26:56.907Z,88.4
2019-03-19T09:28:20.901Z,88.8
2019-03-19T09:29:20.134Z,89
2019-03-19T09:30:19.430Z,88.8
2019-03-19T09:31:18.376Z,88.6
2019-03-19T09:32:17.017Z,88.6
2019-03-19T09:33:16.447Z,88.8
2019-03-19T09:34:15.275Z,88.8
2019-03-19T09:34:45.729Z,88.8
2019-03-19T09:35:16.172Z,88.9
2019-03-19T09:35:46.325Z,88.9
2019-03-19T09:36:16.878Z,88.6
2019-03-19T09:36:57.830Z,88.6
2019-03-19T09:38:11.344Z,89
2019-03-19T09:39:10.766Z,88.4
2019-03-19T09:40:09.702Z,88.2
2019-03-19T09:41:08.649Z,88.5
2019-03-19T09:42:07.375Z,88.2
2019-03-19T09:43:06.608Z,88.7
2019-03-19T09:44:05.768Z,89.6
2019-03-19T09:44:36.323Z,89.6
2019-03-19T09:45:06.796Z,89.7
2019-03-19T09:45:37.026Z,89.7
2019-03-19T09:46:07.696Z,90.8
2019-03-19T09:46:38.345Z,90.8
2019-03-19T09:47:08.893Z,90.7
2019-03-19T09:47:39.130Z,90.7
2019-03-19T09:49:00.913Z,91.4
2019-03-19T09:50:00.112Z,92.3
2019-03-19T09:50:59.175Z,92.2
2019-03-19T09:51:58.127Z,92.5
2019-03-19T09:52:56.960Z,92.3
2019-03-19T09:53:56.092Z,91.8
2019-03-19T09:54:26.326Z,91.8
2019-03-19T09:54:56.478Z,92.2
2019-03-19T09:55:26.926Z,92.2
2019-03-19T09:55:57.692Z,92
2019-03-19T09:56:28.134Z,92
2019-03-19T09:56:58.787Z,92.5
2019-03-19T09:57:29.024Z,92.5
2019-03-19T09:57:59.266Z,92.4
2019-03-19T09:58:29.807Z,92.4
2019-03-19T09:59:50.276Z,92.3
2019-03-19T10:00:49.201Z,92.3
2019-03-19T10:01:48.628Z,92
2019-03-19T10:02:47.551Z,91.8
2019-03-19T10:03:46.325Z,91.9
2019-03-19T10:04:16.873Z,91.9
2019-03-19T10:04:47.525Z,91.4
2019-03-19T10:05:18.077Z,91.4
2019-03-19T10:05:48.729Z,91.8
2019-03-19T10:06:19.374Z,91.8
2019-03-19T10:06:49.733Z,91.6
2019-03-19T10:07:20.212Z,91.6
2019-03-19T10:07:50.928Z,91.2
2019-03-19T10:08:21.191Z,91.2
2019-03-19T10:09:40.863Z,91.3
2019-03-19T10:10:39.885Z,90
2019-03-19T10:11:38.651Z,90.6
2019-03-19T10:12:37.991Z,91
2019-03-19T10:13:36.915Z,90.6
2019-03-19T10:14:35.667Z,90.2
2019-03-19T10:15:06.314Z,90.2
2019-03-19T10:15:36.467Z,89.1
2019-03-19T10:16:07.998Z,89.1
2019-03-19T10:16:37.737Z,89.4
2019-03-19T10:17:07.975Z,89.4
2019-03-19T10:17:38.628Z,89.4
2019-03-19T10:18:08.865Z,89.4
2019-03-19T10:19:30.852Z,88.5
2019-03-19T10:20:29.995Z,89.1
2019-03-19T10:21:28.833Z,89.2
2019-03-19T10:22:28.070Z,88.2
2019-03-19T10:23:26.913Z,87
2019-03-19T10:24:26.343Z,87.6
2019-03-19T10:25:25.175Z,87.5
2019-03-19T10:25:55.341Z,87.5
2019-03-19T10:26:25.982Z,86.5
2019-03-19T10:26:56.334Z,86.5
2019-03-19T10:27:26.976Z,85.5
2019-03-19T10:27:57.521Z,85.5
2019-03-19T10:29:21.317Z,85.1
2019-03-19T10:30:20.049Z,84.7
2019-03-19T10:31:19.375Z,84.3
2019-03-19T10:32:18.205Z,84.4
2019-03-19T10:33:17.435Z,83.2
2019-03-19T10:34:16.477Z,83.1
2019-03-19T10:35:15.472Z,83.5
2019-03-19T10:35:46.132Z,83.5
2019-03-19T10:36:16.776Z,83.5
2019-03-19T10:36:47.427Z,83.5
2019-03-19T10:37:18.074Z,83.1
2019-03-19T10:37:48.309Z,83.1
2019-03-19T10:39:11.703Z,82.5
2019-03-19T10:40:10.444Z,82.2
2019-03-19T10:41:09.786Z,82.5
2019-03-19T10:42:08.930Z,82.7
2019-03-19T10:43:07.612Z,82.7
2019-03-19T10:44:07.044Z,83.5
2019-03-19T10:45:05.697Z,80.9
2019-03-19T10:46:04.934Z,81.3
2019-03-19T10:46:35.574Z,81.3
2019-03-19T10:47:06.218Z,81
2019-03-19T10:47:36.454Z,81
2019-03-19T10:48:06.904Z,81.1
2019-03-19T10:48:37.382Z,81.1
2019-03-19T10:49:08.076Z,78
2019-03-19T10:50:00.952Z,78
2019-03-19T10:51:00.395Z,77.4
2019-03-19T10:51:59.238Z,77
2019-03-19T10:52:58.070Z,77.4